»·PEaware :: N31PC KFLG-KBVU

N31PC :: KFLG-KBVU

FLIGHT INFORMATION

Flight Status: Arrived
Operator: Privately registered:
United States
More flights under this callsign
Pilot: Dan A. (12711)
Aircraft: CESSNA T303 CRUSADER
(C303)
More flights by this aircraft type
Origin: KFLG Flagstaff Pulliam
United States
Destination: KBVU Boulder City
United States
More flights between these airports :: More routes between these airports
Route: VFR
File this flight plan on PilotEdge
Remarks: GPS / TCAS ONLY
Altitude:
(Current/Filed)
10,500ft
Speed:
(Current/Filed)
150kts
Departed: 19-Feb-17 11:03 AM
Arrived: 19-Feb-17 11:56 AM
Distance/Time
Traveled:
759nm/0:53
Distance/Time
To Go:
Arrived

Flight Plot

Page will automatically refresh every two minutes.

Flight plan parsing failed; only flown route is shown


Map Options




Map Legend


Flown Route
Filed Route
Departure Airport
Arrival Airport
Navaid (VOR, NDB)
Fix

Horizontal Profiles

Position Reports

Time Latitude Longitude Heading Altitude Ground
Speed
19-Feb-17 10:40 35.137589 -111.675019 40 7014ft 0kts
19-Feb-17 10:41 35.137589 -111.675019 40 7014ft 0kts
19-Feb-17 10:42 35.137589 -111.675019 40 7014ft 0kts
19-Feb-17 10:43 35.137589 -111.675019 40 7014ft 0kts
19-Feb-17 10:44 35.137590 -111.675018 40 7014ft 0kts
19-Feb-17 10:45 35.137592 -111.675017 40 7014ft 0kts
19-Feb-17 10:46 35.137593 -111.675015 40 7014ft 0kts
19-Feb-17 10:47 35.137595 -111.675013 40 7014ft 0kts
19-Feb-17 10:47 35.137596 -111.675012 40 7014ft 0kts
19-Feb-17 10:48 35.137598 -111.675010 40 7014ft 0kts
19-Feb-17 10:50 35.137600 -111.675008 40 7014ft 0kts
19-Feb-17 10:51 35.137602 -111.675006 40 7014ft 0kts
19-Feb-17 10:52 35.137603 -111.675004 40 7014ft 0kts
19-Feb-17 10:53 35.137605 -111.675002 40 7014ft 0kts
19-Feb-17 10:54 35.137607 -111.675001 40 7014ft 0kts
19-Feb-17 10:55 35.137608 -111.674999 40 7014ft 0kts
19-Feb-17 10:55 35.137610 -111.674997 40 7014ft 0kts
19-Feb-17 10:57 35.137612 -111.674995 40 7014ft 0kts
19-Feb-17 10:58 35.137613 -111.674994 40 7014ft 0kts
19-Feb-17 10:58 35.137615 -111.674992 40 7014ft 0kts
19-Feb-17 10:59 35.137616 -111.674990 40 7014ft 0kts
19-Feb-17 11:00 35.137618 -111.674989 40 7014ft 0kts
19-Feb-17 11:01 35.137622 -111.674985 40 7014ft 1kts
19-Feb-17 11:02 35.136525 -111.673364 221 7014ft 33kts
19-Feb-17 11:03 35.141587 -111.711696 316 8779ft 219kts
19-Feb-17 11:04 35.188182 -111.755204 326 13014ft 218kts
19-Feb-17 11:05 35.192119 -111.814643 211 12602ft 220kts
19-Feb-17 11:06 35.151028 -111.858708 276 12030ft 219kts
19-Feb-17 11:07 35.183705 -111.918844 308 11998ft 210kts
19-Feb-17 11:08 35.214533 -111.978401 294 11999ft 207kts
19-Feb-17 11:09 35.235601 -112.043747 289 12000ft 207kts
19-Feb-17 11:10 35.254060 -112.110561 287 12000ft 207kts
19-Feb-17 11:11 35.271994 -112.177706 287 12000ft 208kts
19-Feb-17 11:12 35.289868 -112.245190 287 12000ft 208kts
19-Feb-17 11:13 35.307651 -112.312573 287 12000ft 208kts
19-Feb-17 11:14 35.325378 -112.379931 287 12000ft 208kts
19-Feb-17 11:15 35.343116 -112.447501 287 12000ft 208kts
19-Feb-17 11:16 35.360777 -112.514954 287 12000ft 208kts
19-Feb-17 11:17 35.378373 -112.582332 287 12000ft 208kts
19-Feb-17 11:18 35.395952 -112.649817 287 12000ft 208kts
19-Feb-17 11:19 35.413571 -112.717628 287 12000ft 208kts
19-Feb-17 11:20 35.431070 -112.785154 287 12000ft 208kts
19-Feb-17 11:21 35.448536 -112.852725 287 12000ft 208kts
19-Feb-17 11:22 35.465972 -112.920357 287 12000ft 208kts
19-Feb-17 11:23 35.483356 -112.987962 287 12000ft 208kts
19-Feb-17 11:24 35.500777 -113.055888 287 12000ft 208kts
19-Feb-17 11:25 35.518081 -113.123535 287 12000ft 208kts
19-Feb-17 11:26 35.535387 -113.191368 287 12000ft 208kts
19-Feb-17 11:27 35.552701 -113.259414 287 12000ft 208kts
19-Feb-17 11:28 35.569908 -113.327218 287 12000ft 208kts
19-Feb-17 11:29 35.587081 -113.395071 287 12000ft 208kts
19-Feb-17 11:30 35.602925 -113.457835 286 12000ft 208kts
19-Feb-17 11:31 35.619903 -113.526090 282 11997ft 208kts
19-Feb-17 11:32 35.609235 -113.595167 251 12000ft 208kts
19-Feb-17 11:33 35.589981 -113.662204 249 12000ft 208kts
19-Feb-17 11:34 35.570260 -113.729092 249 12000ft 208kts
19-Feb-17 11:35 35.550444 -113.796024 249 12000ft 208kts
19-Feb-17 11:36 35.530608 -113.862861 249 12000ft 208kts
19-Feb-17 11:37 35.511639 -113.929865 263 11993ft 208kts
19-Feb-17 11:38 35.534234 -113.994055 302 12000ft 208kts
19-Feb-17 11:39 35.566282 -114.053748 303 12000ft 208kts
19-Feb-17 11:40 35.598193 -114.113177 303 12000ft 208kts
19-Feb-17 11:41 35.630119 -114.172787 303 12000ft 209kts
19-Feb-17 11:42 35.661974 -114.232403 303 12000ft 209kts
19-Feb-17 11:43 35.693880 -114.292228 303 12000ft 209kts
19-Feb-17 11:44 35.725703 -114.352005 303 12000ft 209kts
19-Feb-17 11:45 35.757483 -114.411805 303 12000ft 209kts
19-Feb-17 11:46 35.789306 -114.471793 303 11970ft 208kts
19-Feb-17 11:47 35.818787 -114.527472 303 11250ft 184kts
19-Feb-17 11:48 35.845328 -114.577675 302 10519ft 155kts
19-Feb-17 11:49 35.863494 -114.620420 292 9777ft 131kts
19-Feb-17 11:50 35.877049 -114.660618 292 9055ft 123kts
19-Feb-17 11:51 35.891110 -114.702902 292 7769ft 146kts
19-Feb-17 11:52 35.907410 -114.752021 292 5840ft 172kts
19-Feb-17 11:53 35.924958 -114.806126 290 4076ft 134kts
19-Feb-17 11:54 35.940866 -114.841231 303 2627ft 101kts
19-Feb-17 11:55 35.947304 -114.867728 281 2209ft 63kts
19-Feb-17 11:56 35.948223 -114.868744 85 2204ft 4kts
19-Feb-17 12:01 46.211995 -119.786020 9 699ft 0kts
19-Feb-17 12:02 46.211995 -119.786020 9 699ft 0kts
19-Feb-17 12:03 46.211995 -119.786020 9 699ft 0kts
19-Feb-17 12:04 46.211995 -119.786020 9 699ft 0kts
19-Feb-17 12:05 46.211995 -119.786020 9 699ft 0kts
19-Feb-17 12:06 46.211995 -119.786020 9 699ft 0kts
19-Feb-17 12:07 46.211995 -119.786020 9 699ft 0kts
19-Feb-17 12:08 46.211995 -119.786020 9 699ft 0kts
19-Feb-17 12:09 46.211995 -119.786020 9 699ft 0kts
19-Feb-17 12:10 46.211995 -119.786020 9 699ft 0kts

Navigation Log

Ident Type
Flight plan parsing failed, navigation log unavailable